createdAt,value
2022-09-13T00:00:12.611Z,7.00
2022-09-13T00:03:43.599Z,7.70
2022-09-13T00:07:13.526Z,8.30
2022-09-13T00:10:41.325Z,7.70
2022-09-13T00:13:49.685Z,7.60
2022-09-13T00:17:17.415Z,8.90
2022-09-13T00:20:27.353Z,6.80
2022-09-13T00:23:57.653Z,7.10
2022-09-13T00:27:26.265Z,9.00
2022-09-13T00:30:32.426Z,8.20
2022-09-13T00:33:39.646Z,7.10
2022-09-13T00:37:08.392Z,7.70
2022-09-13T00:40:37.261Z,8.10
2022-09-13T00:43:42.241Z,7.40
2022-09-13T00:46:46.154Z,6.90
2022-09-13T00:49:55.522Z,5.50
2022-09-13T00:53:04.480Z,6.10
2022-09-13T00:56:13.591Z,5.70
2022-09-13T00:59:10.689Z,5.40
2022-09-13T01:02:12.695Z,5.70
2022-09-13T01:05:16.519Z,7.40
2022-09-13T01:08:16.538Z,7.60
2022-09-13T01:11:23.635Z,7.30
2022-09-13T01:14:27.632Z,6.30
2022-09-13T01:17:33.581Z,6.30
2022-09-13T01:20:46.393Z,6.20
2022-09-13T01:23:49.590Z,7.10
2022-09-13T01:27:04.311Z,7.60
2022-09-13T01:30:37.375Z,5.90
2022-09-13T01:34:16.536Z,6.30
2022-09-13T01:41:06.618Z,5.80
2022-09-13T01:44:23.537Z,5.50
2022-09-13T01:47:32.577Z,5.60
2022-09-13T01:50:37.418Z,4.80
2022-09-13T01:53:35.705Z,5.60
2022-09-13T01:56:55.697Z,4.80
2022-09-13T01:59:58.456Z,5.60
2022-09-13T02:02:57.272Z,6.10
2022-09-13T02:06:32.195Z,5.40
2022-09-13T02:09:37.170Z,4.80
2022-09-13T02:12:46.240Z,5.20
2022-09-13T02:15:54.118Z,5.40
2022-09-13T02:19:23.564Z,6.10
2022-09-13T02:22:30.315Z,5.50
2022-09-13T02:26:01.423Z,5.20
2022-09-13T02:29:08.435Z,5.50
2022-09-13T02:32:39.529Z,5.40
2022-09-13T02:35:45.444Z,5.20
2022-09-13T02:38:51.498Z,5.70
2022-09-13T02:41:59.715Z,5.00
2022-09-13T02:45:03.177Z,5.50
2022-09-13T02:48:18.497Z,8.60
2022-09-13T02:51:19.297Z,10.50
2022-09-13T02:54:26.185Z,11.80
2022-09-13T02:57:33.084Z,12.10
2022-09-13T03:00:40.524Z,13.00
2022-09-13T03:03:44.170Z,12.40
2022-09-13T03:06:53.430Z,12.50
2022-09-13T03:09:59.179Z,13.50
2022-09-13T03:13:12.450Z,14.20
2022-09-13T03:16:19.441Z,13.70
2022-09-13T03:20:05.581Z,12.30
2022-09-13T03:23:29.316Z,10.90
2022-09-13T03:29:18.092Z,9.00
2022-09-13T03:32:31.359Z,9.80
2022-09-13T03:36:02.058Z,10.00
2022-09-13T03:39:24.518Z,9.70
2022-09-13T03:42:19.116Z,9.00
2022-09-13T03:45:26.295Z,9.30
2022-09-13T03:48:55.494Z,9.00
2022-09-13T03:51:55.277Z,8.30
2022-09-13T03:54:58.298Z,8.60
2022-09-13T03:57:57.373Z,8.20
2022-09-13T04:01:08.629Z,7.60
2022-09-13T04:10:50.902Z,7.40
2022-09-13T04:14:03.794Z,8.20
2022-09-13T04:17:32.734Z,7.90
2022-09-13T04:21:03.136Z,8.30
2022-09-13T04:24:33.464Z,7.60
2022-09-13T04:27:39.431Z,7.40
2022-09-13T04:30:46.083Z,7.70
2022-09-13T04:34:30.521Z,9.10
2022-09-13T04:37:45.873Z,8.10
2022-09-13T04:41:20.117Z,8.40
2022-09-13T04:44:38.782Z,9.30
2022-09-13T04:48:08.726Z,10.00
2022-09-13T04:54:36.845Z,10.90
2022-09-13T05:00:21.573Z,13.90
2022-09-13T05:02:49.153Z,13.80
2022-09-13T05:05:16.715Z,15.10
2022-09-13T05:07:44.073Z,13.70
2022-09-13T05:10:12.214Z,14.30
2022-09-13T05:12:40.713Z,14.30
2022-09-13T05:15:09.254Z,14.00
2022-09-13T05:17:36.975Z,16.30
2022-09-13T05:20:05.973Z,14.60
2022-09-13T05:22:33.413Z,13.40
2022-09-13T05:25:00.873Z,13.10
2022-09-13T05:27:28.433Z,11.20
2022-09-13T05:29:55.692Z,11.00
2022-09-13T05:32:23.055Z,11.10
2022-09-13T05:34:50.713Z,11.00
2022-09-13T05:37:18.985Z,12.00
2022-09-13T05:40:09.858Z,11.70
2022-09-13T05:42:34.165Z,11.00
2022-09-13T05:45:01.537Z,11.40
2022-09-13T05:47:28.993Z,11.60
2022-09-13T05:50:09.962Z,11.80
2022-09-13T05:52:38.333Z,11.50
2022-09-13T05:55:06.313Z,12.40
2022-09-13T05:57:33.874Z,10.90
2022-09-13T06:00:02.153Z,9.90
2022-09-13T06:02:31.945Z,9.80
2022-09-13T06:04:59.314Z,8.90
2022-09-13T06:07:27.592Z,8.20
2022-09-13T06:09:55.352Z,8.20
2022-09-13T06:12:22.720Z,8.30
2022-09-13T06:14:50.272Z,9.00
2022-09-13T06:17:17.736Z,8.10
2022-09-13T06:19:45.092Z,8.30
2022-09-13T06:22:12.432Z,7.50
2022-09-13T06:24:39.892Z,8.10
2022-09-13T06:27:07.153Z,8.50
2022-09-13T06:29:34.612Z,8.20
2022-09-13T06:32:03.792Z,8.90
2022-09-13T06:34:31.615Z,8.70
2022-09-13T06:36:59.535Z,9.80
2022-09-13T06:39:26.892Z,9.80
2022-09-13T06:41:54.353Z,8.50
2022-09-13T06:44:22.126Z,9.60
2022-09-13T06:46:49.473Z,10.60
2022-09-13T06:49:16.830Z,10.10
2022-09-13T06:51:44.273Z,10.10
2022-09-13T06:54:11.953Z,9.70
2022-09-13T06:56:39.613Z,10.20
2022-09-13T06:59:09.561Z,8.80
2022-09-13T07:01:43.562Z,9.10
2022-09-13T07:04:18.994Z,10.20
2022-09-13T07:06:50.635Z,7.70
2022-09-13T07:09:21.815Z,7.20
2022-09-13T07:11:53.443Z,6.80
2022-09-13T07:14:24.872Z,6.40
2022-09-13T07:16:53.884Z,7.20
2022-09-13T07:19:26.969Z,7.70
2022-09-13T07:21:57.130Z,6.70
2022-09-13T07:24:25.578Z,7.00
2022-09-13T07:26:53.441Z,6.50
2022-09-13T07:29:23.567Z,6.70
2022-09-13T07:31:54.866Z,5.40
2022-09-13T07:34:27.230Z,6.10
2022-09-13T07:36:55.042Z,6.70
2022-09-13T07:39:23.429Z,7.00
2022-09-13T07:41:53.325Z,7.50
2022-09-13T07:44:20.906Z,6.40
2022-09-13T07:46:48.661Z,6.40
2022-09-13T07:49:19.188Z,6.20
2022-09-13T07:51:46.651Z,5.30
2022-09-13T07:54:18.042Z,5.50
2022-09-13T07:56:46.901Z,5.00
2022-09-13T07:59:16.744Z,5.50
2022-09-13T08:01:48.335Z,5.20
2022-09-13T08:04:20.865Z,4.90
2022-09-13T08:06:50.051Z,5.90
2022-09-13T08:09:18.821Z,5.70
2022-09-13T08:11:52.784Z,5.20
2022-09-13T08:14:23.385Z,4.50
2022-09-13T08:16:56.549Z,5.20
2022-09-13T08:19:24.212Z,5.40
2022-09-13T08:21:51.770Z,5.10
2022-09-13T08:24:21.927Z,5.10
2022-09-13T08:26:51.813Z,4.50
2022-09-13T08:29:19.886Z,5.00
2022-09-13T08:31:47.470Z,5.00
2022-09-13T08:34:16.466Z,4.90
2022-09-13T08:36:44.703Z,4.70
2022-09-13T08:39:13.588Z,4.50
2022-09-13T08:41:46.294Z,4.80
2022-09-13T08:44:41.700Z,4.50
2022-09-13T08:47:30.137Z,4.50
2022-09-13T08:50:26.957Z,4.30
2022-09-13T08:53:17.705Z,4.00
2022-09-13T08:56:19.443Z,4.10
2022-09-13T08:59:00.937Z,4.20
2022-09-13T09:01:47.612Z,4.30
2022-09-13T09:04:27.613Z,4.60
2022-09-13T09:07:31.117Z,3.90
2022-09-13T09:10:13.521Z,4.00
2022-09-13T09:13:24.299Z,3.50
2022-09-13T09:16:05.297Z,3.80
2022-09-13T09:18:45.838Z,3.80
2022-09-13T09:21:18.919Z,3.40
2022-09-13T09:23:52.818Z,3.70
2022-09-13T09:26:28.798Z,3.50
2022-09-13T09:28:56.039Z,3.90
2022-09-13T09:31:58.919Z,3.50
2022-09-13T09:35:01.399Z,3.30
2022-09-13T09:37:31.259Z,3.00
2022-09-13T09:40:06.001Z,3.40
2022-09-13T09:42:46.607Z,3.30
2022-09-13T09:45:26.567Z,3.10
2022-09-13T09:47:56.881Z,3.10
2022-09-13T09:50:38.228Z,3.20
2022-09-13T09:53:14.730Z,3.10
2022-09-13T09:56:10.231Z,3.20
2022-09-13T09:58:46.309Z,3.00
2022-09-13T10:01:38.198Z,2.80
2022-09-13T10:04:19.410Z,2.90
2022-09-13T10:06:47.093Z,3.10
2022-09-13T10:09:14.639Z,3.90
2022-09-13T10:11:53.989Z,3.50
2022-09-13T10:14:38.319Z,3.00
2022-09-13T10:17:27.401Z,3.70
2022-09-13T10:20:14.621Z,3.30
2022-09-13T10:22:45.199Z,3.00
2022-09-13T10:25:23.486Z,3.30
2022-09-13T10:28:00.028Z,3.30
2022-09-13T10:30:47.280Z,3.00
2022-09-13T10:33:34.881Z,3.30
2022-09-13T10:36:51.645Z,3.40
2022-09-13T10:39:23.765Z,3.20
2022-09-13T10:42:05.083Z,3.20
2022-09-13T10:45:01.679Z,3.10
2022-09-13T10:47:47.679Z,3.20
2022-09-13T10:50:23.298Z,2.90
2022-09-13T10:52:55.079Z,3.10
2022-09-13T10:55:34.219Z,3.10
2022-09-13T10:58:01.578Z,3.10
2022-09-13T11:01:53.828Z,3.20
2022-09-13T11:04:39.818Z,3.00
2022-09-13T11:07:45.659Z,3.50
2022-09-13T11:10:55.518Z,2.80
2022-09-13T11:13:32.919Z,3.30
2022-09-13T11:16:06.419Z,3.10
2022-09-13T11:18:51.779Z,3.10
2022-09-13T11:21:40.658Z,2.90
2022-09-13T11:24:57.560Z,3.20
2022-09-13T11:27:43.159Z,3.10
2022-09-13T11:30:20.460Z,3.20
2022-09-13T11:33:12.060Z,3.50
2022-09-13T11:36:07.159Z,3.40
2022-09-13T11:39:23.780Z,3.20
2022-09-13T11:42:53.071Z,3.30
2022-09-13T11:45:29.112Z,3.40
2022-09-13T11:48:47.899Z,2.80
2022-09-13T11:52:01.438Z,3.10
2022-09-13T11:54:53.478Z,3.10
2022-09-13T11:57:38.008Z,3.10
2022-09-13T12:00:40.441Z,3.10
2022-09-13T12:03:11.113Z,3.10
2022-09-13T12:06:07.878Z,3.30
2022-09-13T12:08:42.079Z,3.30
2022-09-13T12:11:21.958Z,3.40
2022-09-13T12:14:01.129Z,3.30
2022-09-13T12:16:45.063Z,3.90
2022-09-13T12:19:36.039Z,3.50
2022-09-13T12:22:06.878Z,3.60
2022-09-13T12:24:44.978Z,3.90
2022-09-13T12:27:39.155Z,3.60
2022-09-13T12:30:16.155Z,3.60
2022-09-13T12:32:46.819Z,3.80
2022-09-13T12:35:17.726Z,3.80
2022-09-13T12:38:31.552Z,4.00
2022-09-13T12:41:50.520Z,4.10
2022-09-13T12:44:47.178Z,3.50
2022-09-13T12:47:54.258Z,3.20
2022-09-13T12:50:44.136Z,3.70
2022-09-13T12:53:37.699Z,3.90
2022-09-13T12:56:42.339Z,3.60
2022-09-13T12:59:35.299Z,3.50
2022-09-13T13:02:42.586Z,4.10
2022-09-13T13:05:37.599Z,3.50
2022-09-13T13:08:21.219Z,3.60
2022-09-13T13:11:09.796Z,3.90
2022-09-13T13:13:41.440Z,3.50
2022-09-13T13:16:25.642Z,3.50
2022-09-13T13:19:30.126Z,3.60
2022-09-13T13:22:42.528Z,3.80
2022-09-13T13:25:31.580Z,3.70
2022-09-13T13:27:59.238Z,3.60
2022-09-13T13:30:41.562Z,3.80
2022-09-13T13:33:13.824Z,3.40
2022-09-13T13:35:41.312Z,3.60
2022-09-13T13:38:37.399Z,3.60
2022-09-13T13:41:33.758Z,3.20
2022-09-13T13:44:22.811Z,3.90
2022-09-13T13:46:52.518Z,3.50
2022-09-13T13:49:32.163Z,3.60
2022-09-13T13:52:13.019Z,3.90
2022-09-13T13:54:44.087Z,3.10
2022-09-13T13:57:26.367Z,3.50
2022-09-13T14:00:13.421Z,3.60
2022-09-13T14:02:53.735Z,3.40
2022-09-13T14:05:34.631Z,3.20
2022-09-13T14:11:53.624Z,3.30
2022-09-13T14:15:04.918Z,3.50
2022-09-13T14:18:10.030Z,3.80
2022-09-13T14:20:38.021Z,3.80
2022-09-13T14:23:33.545Z,3.40
2022-09-13T14:26:01.878Z,3.90
2022-09-13T14:28:32.237Z,3.70
2022-09-13T14:31:00.102Z,3.50
2022-09-13T14:33:37.066Z,3.80
2022-09-13T14:36:27.390Z,3.60
2022-09-13T14:39:00.500Z,3.60
2022-09-13T14:41:37.962Z,4.20
2022-09-13T14:44:28.916Z,3.80
2022-09-13T14:47:16.991Z,3.60
2022-09-13T14:49:52.358Z,3.80
2022-09-13T14:52:26.258Z,3.70
2022-09-13T14:55:03.058Z,3.80
2022-09-13T14:57:40.746Z,4.60
2022-09-13T15:00:14.438Z,4.00
2022-09-13T15:02:54.278Z,4.00
2022-09-13T15:05:27.678Z,4.10
2022-09-13T15:07:55.039Z,3.70
2022-09-13T15:10:32.691Z,4.00
2022-09-13T15:13:05.942Z,4.70
2022-09-13T15:15:42.098Z,4.30
2022-09-13T15:18:15.287Z,4.40
2022-09-13T15:20:48.671Z,4.00
2022-09-13T15:23:24.944Z,3.60
2022-09-13T15:26:05.598Z,4.30
2022-09-13T15:28:45.040Z,4.20
2022-09-13T15:31:22.419Z,4.00
2022-09-13T15:34:22.275Z,4.00
2022-09-13T15:37:07.738Z,4.00
2022-09-13T15:40:23.171Z,3.90
2022-09-13T15:42:52.561Z,4.00
2022-09-13T15:45:22.599Z,4.20
2022-09-13T15:47:52.547Z,3.90
2022-09-13T15:50:30.659Z,3.60
2022-09-13T15:53:00.990Z,4.00
2022-09-13T15:55:30.823Z,4.00
2022-09-13T15:57:58.058Z,3.90
2022-09-13T16:00:28.440Z,4.10
2022-09-13T16:02:56.662Z,3.50
2022-09-13T16:05:24.078Z,4.10
2022-09-13T16:07:53.821Z,3.80
2022-09-13T16:10:23.262Z,4.10
2022-09-13T16:12:51.442Z,3.90
2022-09-13T16:15:19.059Z,3.80
2022-09-13T16:17:47.799Z,4.20
2022-09-13T16:20:17.272Z,4.30
2022-09-13T16:22:45.345Z,3.60
2022-09-13T16:25:15.468Z,4.00
2022-09-13T16:27:44.519Z,3.60
2022-09-13T16:30:19.619Z,4.30
2022-09-13T16:32:47.243Z,3.70
2022-09-13T16:35:16.106Z,4.10
2022-09-13T16:37:51.501Z,3.90
2022-09-13T16:40:22.029Z,3.50
2022-09-13T16:42:50.484Z,4.10
2022-09-13T16:45:17.940Z,4.70
2022-09-13T16:47:45.319Z,4.20
2022-09-13T16:50:13.635Z,4.40
2022-09-13T16:52:42.158Z,4.30
2022-09-13T16:55:10.350Z,4.10
2022-09-13T16:57:38.300Z,4.00
2022-09-13T17:00:10.459Z,4.20
2022-09-13T17:02:40.102Z,4.10
2022-09-13T17:05:08.671Z,4.50
2022-09-13T17:07:36.839Z,4.20
2022-09-13T17:10:08.924Z,4.20
2022-09-13T17:12:36.551Z,4.30
2022-09-13T17:15:05.599Z,4.90
2022-09-13T17:17:36.011Z,4.70
2022-09-13T17:20:11.640Z,4.50
2022-09-13T17:22:39.922Z,4.70
2022-09-13T17:25:08.638Z,4.50
2022-09-13T17:27:37.698Z,5.40
2022-09-13T17:30:06.652Z,5.50
2022-09-13T17:32:34.154Z,5.10
2022-09-13T17:35:01.710Z,4.90
2022-09-13T17:37:34.672Z,5.40
2022-09-13T17:40:03.646Z,5.00
2022-09-13T17:42:31.432Z,6.20
2022-09-13T17:44:58.923Z,6.90
2022-09-13T17:47:26.360Z,5.70
2022-09-13T17:52:14.082Z,6.20
2022-09-13T17:54:43.238Z,6.50
2022-09-13T17:57:14.679Z,6.20
2022-09-13T17:59:43.559Z,5.90
2022-09-13T18:02:12.296Z,5.70
2022-09-13T18:04:41.719Z,5.60
2022-09-13T18:07:10.640Z,5.90
2022-09-13T18:09:40.982Z,5.30
2022-09-13T18:12:10.978Z,5.40
2022-09-13T18:14:40.286Z,4.90
2022-09-13T18:17:13.771Z,5.50
2022-09-13T18:19:47.246Z,4.70
2022-09-13T18:22:16.780Z,5.30
2022-09-13T18:24:45.586Z,4.50
2022-09-13T18:27:14.359Z,4.50
2022-09-13T18:29:43.159Z,5.30
2022-09-13T18:32:11.799Z,4.70
2022-09-13T18:34:42.579Z,5.10
2022-09-13T18:37:11.280Z,5.10
2022-09-13T18:39:40.008Z,5.40
2022-09-13T18:42:08.938Z,5.50
2022-09-13T18:44:37.939Z,5.20
2022-09-13T18:47:08.926Z,4.70
2022-09-13T18:49:37.658Z,5.00
2022-09-13T18:52:06.718Z,5.50
2022-09-13T18:54:35.859Z,4.80
2022-09-13T18:57:05.160Z,4.90
2022-09-13T18:59:34.139Z,5.30
2022-09-13T19:02:03.044Z,5.40
2022-09-13T19:04:33.966Z,5.40
2022-09-13T19:07:07.283Z,5.30
2022-09-13T19:09:36.578Z,5.40
2022-09-13T19:12:05.986Z,5.30
2022-09-13T19:14:34.959Z,5.50
2022-09-13T19:17:05.159Z,6.10
2022-09-13T19:19:35.898Z,5.10
2022-09-13T19:22:04.814Z,6.00
2022-09-13T19:24:34.320Z,4.80
2022-09-13T19:27:03.221Z,5.90
2022-09-13T19:29:32.169Z,6.00
2022-09-13T19:32:00.991Z,5.20
2022-09-13T19:34:30.299Z,5.90
2022-09-13T19:36:59.244Z,5.50
2022-09-13T19:39:30.523Z,5.20
2022-09-13T19:42:02.899Z,5.60
2022-09-13T19:44:31.701Z,5.10
2022-09-13T19:47:45.042Z,6.00
2022-09-13T19:49:50.158Z,5.70
2022-09-13T19:52:19.158Z,6.60
2022-09-13T19:54:47.939Z,6.10
2022-09-13T19:57:16.549Z,5.40
2022-09-13T19:59:45.522Z,6.60
2022-09-13T20:02:14.519Z,6.70
2022-09-13T20:04:43.371Z,7.10
2022-09-13T20:07:13.805Z,6.80
2022-09-13T20:09:42.739Z,6.50
2022-09-13T20:12:11.937Z,6.20
2022-09-13T20:14:40.702Z,6.30
2022-09-13T20:17:09.719Z,6.80
2022-09-13T20:19:42.858Z,6.50
2022-09-13T20:22:15.177Z,7.00
2022-09-13T20:24:43.978Z,6.20
2022-09-13T20:27:12.859Z,6.90
2022-09-13T20:29:41.952Z,6.40
2022-09-13T20:32:11.561Z,6.60
2022-09-13T20:34:40.139Z,6.70
2022-09-13T20:37:08.712Z,6.60
2022-09-13T20:39:37.520Z,6.80
2022-09-13T20:42:06.521Z,7.30
2022-09-13T20:44:35.681Z,7.40
2022-09-13T20:47:04.740Z,7.30
2022-09-13T20:49:33.500Z,7.20
2022-09-13T20:52:02.628Z,7.50
2022-09-13T20:54:31.578Z,8.30
2022-09-13T20:57:00.461Z,7.60
2022-09-13T20:59:29.159Z,7.00
2022-09-13T21:01:58.194Z,8.40
2022-09-13T21:04:26.928Z,8.40
2022-09-13T21:07:14.976Z,7.60
2022-09-13T21:09:44.379Z,6.70
2022-09-13T21:12:16.130Z,6.80
2022-09-13T21:14:46.759Z,7.50
2022-09-13T21:17:15.653Z,7.20
2022-09-13T21:19:44.582Z,7.50
2022-09-13T21:22:13.339Z,7.40
2022-09-13T21:24:42.550Z,6.60
2022-09-13T21:27:12.168Z,6.50
2022-09-13T21:29:41.040Z,6.10
2022-09-13T21:32:10.758Z,6.60
2022-09-13T21:34:39.539Z,6.30
2022-09-13T21:37:08.219Z,6.60
2022-09-13T21:39:37.028Z,6.20
2022-09-13T21:42:06.098Z,7.00
2022-09-13T21:44:35.716Z,6.50
2022-09-13T21:47:04.498Z,7.60
2022-09-13T21:49:33.840Z,6.30
2022-09-13T21:52:03.191Z,6.60
2022-09-13T21:54:32.299Z,5.50
2022-09-13T21:57:01.099Z,6.30
